Time;durP1;ratioP1;P1;durP2;ratioP2;P2;SDS_P1;SDS_P2;PMS_P1;PMS_P2;Temp;Humidity;BMP_temperature;BMP_pressure;BME280_temperature;BME280_humidity;BME280_pressure;Samples;Min_cycle;Max_cycle;Signal;HPM_P1;HPM_P2
2021/11/19 00:01:02;;;;;;;35.05;11.32;;;;;;;5.34;100.00;100707.13;5041199;28;20087;-63
2021/11/19 00:03:28;;;;;;;44.55;15.05;;;;;;;5.32;100.00;100703.78;5042471;28;20066;-62
2021/11/19 00:05:54;;;;;;;37.08;14.27;;;;;;;5.34;100.00;100699.13;5044037;28;20055;-62
2021/11/19 00:08:25;;;;;;;33.65;10.77;;;;;;;5.41;100.00;100705.41;5043931;28;20490;-62
2021/11/19 00:10:57;;;;;;;43.08;13.90;;;;;;;5.40;99.80;100703.75;5037944;28;20515;-62
2021/11/19 00:13:23;;;;;;;16.25;8.52;;;;;;;5.39;99.90;100701.25;5041171;28;20064;-63
2021/11/19 00:15:48;;;;;;;29.73;10.07;;;;;;;5.37;100.00;100696.13;5043125;28;20047;-64
2021/11/19 00:18:14;;;;;;;44.90;13.18;;;;;;;5.41;99.95;100696.59;5044147;28;20296;-62
2021/11/19 00:20:39;;;;;;;22.25;10.27;;;;;;;5.38;99.95;100700.44;5040847;28;20467;-62
2021/11/19 00:23:05;;;;;;;38.55;13.43;;;;;;;5.40;99.98;100703.75;5041913;28;20040;-63
2021/11/19 00:25:31;;;;;;;37.63;13.38;;;;;;;5.37;100.00;100693.47;5042632;28;20051;-62
2021/11/19 00:27:57;;;;;;;40.38;13.55;;;;;;;5.39;100.00;100699.44;5040746;28;20116;-62
2021/11/19 00:30:23;;;;;;;28.05;10.85;;;;;;;5.42;100.00;100700.94;5043733;28;20063;-62
2021/11/19 00:32:49;;;;;;;25.70;9.75;;;;;;;5.37;100.00;100698.78;5044194;28;20029;-62
2021/11/19 00:35:15;;;;;;;39.22;11.40;;;;;;;5.41;100.00;100702.75;5041133;28;20033;-62
2021/11/19 00:37:41;;;;;;;35.58;12.60;;;;;;;5.39;100.00;100690.63;5042856;28;20036;-62
2021/11/19 00:40:10;;;;;;;43.25;12.95;;;;;;;5.38;100.00;100687.13;5044297;28;20037;-61
2021/11/19 00:42:36;;;;;;;26.80;10.45;;;;;;;5.38;100.00;100686.31;5040704;28;20031;-61
2021/11/19 00:45:01;;;;;;;32.78;13.50;;;;;;;5.39;100.00;100685.31;5041622;28;20052;-63
2021/11/19 00:47:27;;;;;;;39.72;13.38;;;;;;;5.39;100.00;100683.50;5042623;28;20040;-62
2021/11/19 00:49:53;;;;;;;38.28;12.40;;;;;;;5.39;100.00;100690.63;5044105;28;20040;-61
2021/11/19 00:52:18;;;;;;;33.15;12.25;;;;;;;5.40;100.00;100689.63;5043338;28;20037;-62
2021/11/19 00:54:44;;;;;;;28.60;11.07;;;;;;;5.39;100.00;100691.47;5042851;28;20132;-61
2021/11/19 00:57:11;;;;;;;37.55;11.70;;;;;;;5.40;100.00;100687.81;5029767;28;20377;-62
2021/11/19 00:59:37;;;;;;;40.20;13.65;;;;;;;5.41;100.00;100689.44;5041725;28;20029;-62
2021/11/19 01:02:12;;;;;;;33.00;12.40;;;;;;;5.39;100.00;100699.44;5040599;28;20037;-64
2021/11/19 01:04:38;;;;;;;16.48;8.80;;;;;;;5.38;100.00;100684.47;5039970;28;20033;-63
2021/11/19 01:07:04;;;;;;;25.85;10.93;;;;;;;5.36;100.00;100688.31;5039932;28;20388;-63
2021/11/19 01:09:32;;;;;;;29.08;12.35;;;;;;;5.36;100.00;100686.47;5044003;28;20032;-63
2021/11/19 01:11:58;;;;;;;19.70;7.82;;;;;;;5.38;100.00;100688.97;5043282;28;20505;-62
2021/11/19 01:14:33;;;;;;;28.50;9.65;;;;;;;5.37;100.00;100690.81;5039394;28;20064;-63
2021/11/19 01:17:01;;;;;;;26.42;10.52;;;;;;;5.37;100.00;100688.16;5041916;28;20036;-64
2021/11/19 01:19:34;;;;;;;30.73;11.23;;;;;;;5.37;100.00;100690.81;5043190;28;20128;-63
2021/11/19 01:22:16;;;;;;;18.73;9.45;;;;;;;5.34;100.00;100707.13;5039056;28;20044;-63
2021/11/19 01:24:41;;;;;;;28.23;11.55;;;;;;;5.33;100.00;100691.31;5033278;28;20083;-63
2021/11/19 01:27:07;;;;;;;25.80;10.38;;;;;;;5.32;100.00;100685.19;5040306;28;20402;-62
2021/11/19 01:29:33;;;;;;;39.92;13.55;;;;;;;5.30;100.00;100689.84;5043087;28;20068;-62
2021/11/19 01:32:04;;;;;;;36.20;9.80;;;;;;;5.32;100.00;100695.81;5042210;28;20132;-62
2021/11/19 01:34:30;;;;;;;34.47;11.38;;;;;;;5.27;100.00;100698.16;5043131;28;20065;-62
2021/11/19 01:36:56;;;;;;;29.42;11.20;;;;;;;5.32;100.00;100695.00;5026281;28;20052;-62
2021/11/19 01:39:25;;;;;;;35.83;11.30;;;;;;;5.29;100.00;100701.50;5040453;28;20033;-62
2021/11/19 01:41:57;;;;;;;35.58;11.05;;;;;;;5.33;100.00;100710.75;5042058;28;20067;-62
2021/11/19 01:44:53;;;;;;;29.63;10.82;;;;;;;5.36;100.00;100707.75;5015898;28;20029;-62
2021/11/19 01:47:18;;;;;;;34.40;11.68;;;;;;;5.41;100.00;100704.56;5040439;28;20066;-62
2021/11/19 01:49:44;;;;;;;22.23;9.18;;;;;;;5.45;100.00;100705.06;5042800;28;20032;-62
2021/11/19 01:52:19;;;;;;;28.75;11.32;;;;;;;5.48;100.00;100710.03;5041707;28;20121;-62
2021/11/19 01:54:49;;;;;;;27.75;11.82;;;;;;;5.43;100.00;100707.91;5038880;28;20568;-62
2021/11/19 01:57:22;;;;;;;27.58;10.75;;;;;;;5.41;100.00;100707.22;5038979;28;20075;-62
2021/11/19 01:59:52;;;;;;;30.80;12.18;;;;;;;5.41;100.00;100704.56;5026790;28;20029;-62
2021/11/19 02:02:21;;;;;;;35.75;13.10;;;;;;;5.37;100.00;100708.59;5038847;28;20530;-62
2021/11/19 02:04:57;;;;;;;33.00;12.07;;;;;;;5.37;100.00;100704.09;5038924;28;20175;-62
2021/11/19 02:07:27;;;;;;;25.17;9.77;;;;;;;5.38;100.00;100710.25;5032078;28;20163;-62
2021/11/19 02:10:10;;;;;;;24.35;9.82;;;;;;;5.38;100.00;100711.06;5048066;28;20036;-62
2021/11/19 02:12:50;;;;;;;33.70;11.82;;;;;;;5.36;100.00;100706.94;5048385;28;20049;-62
2021/11/19 02:15:26;;;;;;;37.83;12.25;;;;;;;5.41;100.00;100705.41;5043298;28;20056;-62
2021/11/19 02:17:53;;;;;;;30.70;12.05;;;;;;;5.40;100.00;100705.59;5047835;28;20063;-62
2021/11/19 02:20:25;;;;;;;36.20;11.40;;;;;;;5.43;100.00;100707.06;5044846;28;20031;-61
2021/11/19 02:22:54;;;;;;;43.08;13.50;;;;;;;5.40;100.00;100708.25;5062581;28;20047;-61
2021/11/19 02:25:38;;;;;;;38.80;13.90;;;;;;;5.42;100.00;100708.91;5043240;28;20585;-62
2021/11/19 02:28:10;;;;;;;37.08;14.13;;;;;;;5.45;100.00;100710.41;5008989;28;20095;-62
2021/11/19 02:31:00;;;;;;;34.67;13.60;;;;;;;5.49;100.00;100711.69;5049200;28;20053;-62
2021/11/19 02:33:28;;;;;;;25.63;11.33;;;;;;;5.49;100.00;100706.38;5045567;28;20060;-62
2021/11/19 02:35:53;;;;;;;37.47;13.68;;;;;;;5.45;100.00;100715.72;5045130;28;20048;-62
2021/11/19 02:38:20;;;;;;;32.85;10.80;;;;;;;5.53;100.00;100715.66;5048503;28;20434;-62
2021/11/19 02:40:46;;;;;;;22.23;8.80;;;;;;;5.48;100.00;100718.03;5026658;28;20057;-61
2021/11/19 02:43:15;;;;;;;24.60;9.43;;;;;;;5.46;100.00;100709.38;5044747;28;20028;-62
2021/11/19 02:45:45;;;;;;;37.70;13.63;;;;;;;5.47;100.00;100719.03;5026845;28;20041;-61
2021/11/19 02:48:13;;;;;;;35.10;12.50;;;;;;;5.46;100.00;100717.34;5047718;28;20036;-62
2021/11/19 02:50:39;;;;;;;35.00;12.40;;;;;;;5.53;100.00;100713.84;5048640;28;20649;-61
2021/11/19 02:53:05;;;;;;;44.33;13.57;;;;;;;5.48;100.00;100705.53;5045670;28;20040;-63
2021/11/19 02:55:33;;;;;;;32.55;13.38;;;;;;;5.55;100.00;100714.50;5048784;28;20098;-61
2021/11/19 02:57:59;;;;;;;38.53;13.38;;;;;;;5.47;100.00;100713.72;5044984;28;20029;-63
2021/11/19 03:00:28;;;;;;;41.58;14.10;;;;;;;5.49;100.00;100711.69;5047493;28;20053;-62
2021/11/19 03:02:53;;;;;;;29.90;12.15;;;;;;;5.48;100.00;100704.72;5047889;28;20039;-62
2021/11/19 03:05:26;;;;;;;40.50;15.13;;;;;;;5.52;100.00;100706.03;5043818;28;20414;-62
2021/11/19 03:07:51;;;;;;;40.90;16.13;;;;;;;5.53;100.00;100713.84;5048279;28;20048;-62
2021/11/19 03:10:28;;;;;;;42.90;15.23;;;;;;;5.48;100.00;100723.34;5048304;28;20032;-62
2021/11/19 03:12:54;;;;;;;26.92;9.20;;;;;;;5.49;100.00;100724.97;5048309;28;20421;-62
2021/11/19 03:15:29;;;;;;;24.33;10.65;;;;;;;5.53;100.00;100718.34;5046892;28;20033;-61
2021/11/19 03:17:54;;;;;;;33.70;13.10;;;;;;;5.51;100.00;100721.16;5047695;28;20114;-62
2021/11/19 03:20:21;;;;;;;30.75;13.13;;;;;;;5.51;100.00;100718.50;5043957;28;20057;-63
2021/11/19 03:22:47;;;;;;;35.95;14.55;;;;;;;5.53;100.00;100713.00;5045469;28;20087;-61
2021/11/19 03:25:14;;;;;;;37.15;14.38;;;;;;;5.57;100.00;100717.00;5045352;28;20032;-61
2021/11/19 03:27:40;;;;;;;40.45;15.20;;;;;;;5.54;100.00;100714.66;5044891;28;20013;-63
2021/11/19 03:30:07;;;;;;;31.92;10.15;;;;;;;5.56;100.00;100728.63;5043889;28;20044;-60
2021/11/19 03:32:32;;;;;;;37.38;14.45;;;;;;;5.55;100.00;100719.81;5041311;28;20731;-63
2021/11/19 03:34:58;;;;;;;51.13;16.98;;;;;;;5.58;100.00;100726.63;5043455;28;20029;-64
2021/11/19 03:37:24;;;;;;;31.00;10.90;;;;;;;5.58;100.00;100715.97;5044006;28;20105;-63
2021/11/19 03:39:49;;;;;;;32.28;12.35;;;;;;;5.53;100.00;100721.81;5045037;28;20599;-64
2021/11/19 03:42:17;;;;;;;35.28;12.35;;;;;;;5.51;100.00;100720.31;5042682;28;20055;-63
2021/11/19 03:44:59;;;;;;;46.67;15.93;;;;;;;5.51;100.00;100715.00;5043971;28;20043;-63
2021/11/19 03:47:29;;;;;;;41.88;14.27;;;;;;;5.54;100.00;100714.66;5041874;28;20495;-63
2021/11/19 03:49:55;;;;;;;37.08;14.43;;;;;;;5.51;100.00;100721.16;5044455;28;20032;-63
2021/11/19 03:52:24;;;;;;;28.33;10.30;;;;;;;5.57;100.00;100719.66;5043705;28;20051;-63
2021/11/19 03:54:51;;;;;;;43.95;15.45;;;;;;;5.56;100.00;100725.97;5039890;28;20033;-63
2021/11/19 03:57:17;;;;;;;39.95;13.98;;;;;;;5.54;100.00;100726.16;5042793;28;20313;-63
2021/11/19 03:59:43;;;;;;;34.47;12.30;;;;;;;5.57;100.00;100730.28;5044849;28;20075;-64
2021/11/19 04:02:08;;;;;;;39.92;12.73;;;;;;;5.54;100.00;100731.47;5044424;28;20534;-63
2021/11/19 04:04:35;;;;;;;35.95;13.55;;;;;;;5.55;100.00;100726.97;5043850;28;20131;-63
2021/11/19 04:07:03;;;;;;;34.70;12.30;;;;;;;5.57;100.00;100724.97;5042329;28;20044;-63
2021/11/19 04:09:28;;;;;;;29.10;11.93;;;;;;;5.57;100.00;100714.34;5043611;28;20087;-63
2021/11/19 04:11:54;;;;;;;48.40;17.58;;;;;;;5.57;100.00;100717.00;5039561;28;20441;-63
2021/11/19 04:14:20;;;;;;;23.95;11.23;;;;;;;5.61;100.00;100720.94;5043924;28;20029;-63
2021/11/19 04:16:49;;;;;;;41.97;14.02;;;;;;;5.59;100.00;100714.97;5042796;28;20044;-63
2021/11/19 04:19:15;;;;;;;34.60;15.40;;;;;;;5.61;100.00;100720.94;5043751;28;20903;-63
2021/11/19 04:21:42;;;;;;;42.33;14.93;;;;;;;5.56;100.00;100728.63;5043181;28;20086;-63
2021/11/19 04:24:08;;;;;;;47.15;16.33;;;;;;;5.51;100.00;100723.81;5043014;28;20379;-63
2021/11/19 04:26:34;;;;;;;45.15;15.98;;;;;;;5.54;100.00;100728.81;5042237;28;20037;-63
2021/11/19 04:29:00;;;;;;;42.70;15.80;;;;;;;5.57;100.00;100730.28;5041998;28;20053;-63
2021/11/19 04:31:26;;;;;;;47.38;18.52;;;;;;;5.59;100.00;100726.44;5039786;28;20479;-63
2021/11/19 04:33:52;;;;;;;34.13;12.48;;;;;;;5.56;100.00;100733.94;5042957;28;20029;-63
2021/11/19 04:36:18;;;;;;;45.20;16.38;;;;;;;5.58;100.00;100719.47;5042369;28;20040;-63
2021/11/19 04:38:43;;;;;;;37.42;14.77;;;;;;;5.57;100.00;100724.97;5042950;28;20037;-63
2021/11/19 04:41:09;;;;;;;52.58;17.50;;;;;;;5.59;100.00;100717.63;5043109;28;20041;-63
2021/11/19 04:43:37;;;;;;;46.42;17.50;;;;;;;5.66;100.00;100725.75;5043021;28;20116;-63
2021/11/19 04:46:04;;;;;;;29.33;13.13;;;;;;;5.62;100.00;100722.63;5041820;28;20044;-62
2021/11/19 04:48:34;;;;;;;28.63;12.38;;;;;;;5.61;100.00;100726.25;5043696;28;20086;-62
2021/11/19 04:51:00;;;;;;;36.08;13.75;;;;;;;5.56;100.00;100716.13;5042596;28;20037;-62
2021/11/19 04:53:26;;;;;;;38.67;13.85;;;;;;;5.59;100.00;100718.47;5043172;28;20106;-63
2021/11/19 04:55:52;;;;;;;44.03;17.45;;;;;;;5.60;100.00;100714.81;5043487;28;21581;-63
2021/11/19 04:58:18;;;;;;;44.53;16.70;;;;;;;5.57;100.00;100717.00;5038806;28;20426;-63
2021/11/19 05:00:46;;;;;;;33.17;14.18;;;;;;;5.58;100.00;100718.63;5042075;28;20045;-62
2021/11/19 05:03:12;;;;;;;43.90;14.77;;;;;;;5.57;100.00;100717.00;5044007;28;20049;-62
2021/11/19 05:05:37;;;;;;;36.65;14.27;;;;;;;5.57;100.00;100714.34;5041947;28;20164;-63
2021/11/19 05:08:04;;;;;;;30.80;13.13;;;;;;;5.56;100.00;100713.47;5042819;28;20021;-63
2021/11/19 05:10:29;;;;;;;37.88;14.05;;;;;;;5.57;100.00;100712.50;5041750;28;20048;-63
2021/11/19 05:12:56;;;;;;;47.17;17.25;;;;;;;5.55;100.00;100722.47;5041104;28;20094;-63
2021/11/19 05:15:22;;;;;;;60.15;17.35;;;;;;;5.58;100.00;100715.97;5041477;28;20053;-63
2021/11/19 05:17:47;;;;;;;48.70;17.77;;;;;;;5.56;100.00;100718.81;5041796;28;20506;-63
2021/11/19 05:20:14;;;;;;;49.38;17.40;;;;;;;5.55;100.00;100729.63;5042208;28;20553;-62
2021/11/19 05:22:40;;;;;;;47.65;16.83;;;;;;;5.57;100.00;100731.13;5043223;28;20100;-62
2021/11/19 05:25:06;;;;;;;47.42;17.63;;;;;;;5.52;100.00;100729.97;5042091;28;20036;-62
2021/11/19 05:27:32;;;;;;;42.90;18.88;;;;;;;5.56;100.00;100728.63;5042514;28;20033;-63
2021/11/19 05:29:57;;;;;;;42.20;15.15;;;;;;;5.56;100.00;100733.94;5043343;28;20075;-63
2021/11/19 05:32:23;;;;;;;46.75;17.30;;;;;;;5.59;100.00;100728.25;5041976;28;20048;-63
2021/11/19 05:34:49;;;;;;;44.25;15.30;;;;;;;5.59;100.00;100733.59;5042757;28;20025;-63
2021/11/19 05:37:14;;;;;;;38.20;17.30;;;;;;;5.61;100.00;100736.91;5041342;28;20131;-63
2021/11/19 05:39:40;;;;;;;24.42;10.82;;;;;;;5.60;100.00;100729.94;5040020;28;20440;-63
2021/11/19 05:42:05;;;;;;;37.33;14.15;;;;;;;5.59;100.00;100729.13;5041786;28;20040;-63
2021/11/19 05:44:32;;;;;;;49.33;18.73;;;;;;;5.57;100.00;100730.28;5041756;28;20033;-63
2021/11/19 05:46:59;;;;;;;31.98;12.60;;;;;;;5.59;100.00;100733.59;5040940;28;20098;-62
2021/11/19 05:49:24;;;;;;;46.25;16.08;;;;;;;5.59;100.00;100717.63;5040065;28;20330;-63
2021/11/19 05:51:51;;;;;;;33.72;12.30;;;;;;;5.62;100.00;100728.75;5041987;28;20086;-63
2021/11/19 05:54:18;;;;;;;35.85;14.43;;;;;;;5.61;100.00;100731.59;5042507;28;20096;-63
2021/11/19 05:56:43;;;;;;;40.60;16.58;;;;;;;5.61;100.00;100731.59;5042072;28;20159;-62
2021/11/19 05:59:09;;;;;;;41.83;17.02;;;;;;;5.63;100.00;100724.25;5042823;28;20107;-63
2021/11/19 06:01:35;;;;;;;36.10;15.82;;;;;;;5.65;100.00;100719.59;5041575;28;20469;-62
2021/11/19 06:04:00;;;;;;;45.03;17.08;;;;;;;5.62;100.00;100723.44;5040797;28;20049;-62
2021/11/19 06:06:26;;;;;;;40.30;16.33;;;;;;;5.60;100.00;100730.75;5041337;28;20491;-62
2021/11/19 06:08:51;;;;;;;35.55;13.68;;;;;;;5.60;100.00;100729.94;5042312;28;20115;-62
2021/11/19 06:11:29;;;;;;;40.55;15.32;;;;;;;5.66;100.00;100729.22;5042014;28;20045;-62
2021/11/19 06:14:04;;;;;;;44.72;15.73;;;;;;;5.67;100.00;100724.75;5019804;28;20028;-62
2021/11/19 06:16:33;;;;;;;39.00;15.75;;;;;;;5.62;100.00;100735.91;5022340;28;20134;-62
2021/11/19 06:19:03;;;;;;;37.85;15.48;;;;;;;5.63;100.00;100734.91;5029711;28;20028;-62
2021/11/19 06:21:39;;;;;;;43.30;15.65;;;;;;;5.63;100.00;100737.56;5039516;28;20060;-62
2021/11/19 06:24:07;;;;;;;41.42;14.13;;;;;;;5.67;100.00;100733.56;5014964;28;20053;-62
2021/11/19 06:26:32;;;;;;;44.42;17.38;;;;;;;5.67;100.00;100738.88;5040300;28;20041;-62
2021/11/19 06:29:04;;;;;;;42.40;16.15;;;;;;;5.70;100.00;100746.50;5042334;28;20620;-62
2021/11/19 06:31:30;;;;;;;35.75;13.85;;;;;;;5.68;100.00;100748.50;5041125;28;20131;-63
2021/11/19 06:33:56;;;;;;;38.25;15.48;;;;;;;5.68;100.00;100751.16;5040479;28;20033;-63
2021/11/19 06:36:21;;;;;;;37.53;14.68;;;;;;;5.75;100.00;100754.81;5021921;28;20053;-63
2021/11/19 06:38:47;;;;;;;38.95;16.83;;;;;;;5.69;100.00;100747.53;5040393;28;20064;-63
2021/11/19 06:41:13;;;;;;;37.58;13.07;;;;;;;5.73;100.00;100740.84;5040914;28;20045;-62
2021/11/19 06:43:38;;;;;;;32.03;15.27;;;;;;;5.73;100.00;100750.66;5041554;28;20108;-63
2021/11/19 06:46:04;;;;;;;37.95;14.43;;;;;;;5.78;100.00;100740.31;5041416;28;20063;-62
2021/11/19 06:48:30;;;;;;;29.33;12.35;;;;;;;5.71;100.00;100740.19;5040244;28;20082;-63
2021/11/19 06:50:55;;;;;;;31.52;13.02;;;;;;;5.76;100.00;100750.31;5040323;28;20052;-62
2021/11/19 06:53:22;;;;;;;30.70;13.57;;;;;;;5.77;100.00;100747.47;5042388;28;20621;-62
2021/11/19 06:55:48;;;;;;;32.17;13.55;;;;;;;5.75;100.00;100749.47;5039701;28;20083;-62
2021/11/19 06:58:13;;;;;;;31.02;13.27;;;;;;;5.90;100.00;100746.09;5043926;28;20037;-63
2021/11/19 07:00:42;;;;;;;36.17;13.98;;;;;;;5.80;100.00;100751.63;5045471;28;20053;-63
2021/11/19 07:03:07;;;;;;;31.05;13.70;;;;;;;5.88;100.00;100758.72;5045862;28;20029;-63
2021/11/19 07:05:34;;;;;;;28.85;12.85;;;;;;;5.77;100.00;100765.28;5041901;28;20067;-63
2021/11/19 07:08:04;;;;;;;29.20;13.20;;;;;;;5.80;100.00;100773.72;5044825;28;20116;-63
2021/11/19 07:10:30;;;;;;;27.38;12.75;;;;;;;5.94;100.00;100771.38;5028306;28;20175;-62
2021/11/19 07:12:55;;;;;;;32.72;15.10;;;;;;;5.86;100.00;100772.19;5042982;28;20136;-63
2021/11/19 07:15:21;;;;;;;33.08;14.57;;;;;;;5.79;100.00;100772.09;5044330;28;20343;-62
2021/11/19 07:17:46;;;;;;;28.90;13.88;;;;;;;5.86;100.00;100776.69;5041644;28;20029;-63
2021/11/19 07:20:15;;;;;;;30.27;13.35;;;;;;;5.86;100.00;100776.69;5043955;28;20032;-63
2021/11/19 07:22:41;;;;;;;30.13;13.20;;;;;;;5.87;100.00;100779.19;5014721;28;20483;-63
2021/11/19 07:25:10;;;;;;;33.05;13.77;;;;;;;5.86;100.00;100782.03;5043190;28;20061;-62
2021/11/19 07:27:35;;;;;;;30.17;13.65;;;;;;;5.88;100.00;100782.69;5042193;28;20041;-63
2021/11/19 07:30:01;;;;;;;27.70;12.00;;;;;;;5.85;100.00;100786.53;5057593;28;20044;-62
2021/11/19 07:32:26;;;;;;;24.58;11.82;;;;;;;5.92;100.00;100790.16;5039439;28;20060;-63
2021/11/19 07:34:52;;;;;;;25.88;12.23;;;;;;;5.90;100.00;100794.81;5041047;28;20483;-63
2021/11/19 07:37:23;;;;;;;32.63;13.82;;;;;;;5.95;100.00;100799.66;5043538;28;20136;-63
2021/11/19 07:39:49;;;;;;;22.80;11.82;;;;;;;5.94;100.00;100800.63;5044094;28;20108;-62
2021/11/19 07:42:14;;;;;;;29.15;12.73;;;;;;;5.89;100.00;100798.50;5044228;28;20047;-62
2021/11/19 07:44:40;;;;;;;26.08;12.68;;;;;;;6.00;100.00;100800.78;5044600;28;20033;-63
2021/11/19 07:47:05;;;;;;;24.00;11.30;;;;;;;6.10;100.00;100795.25;5043644;28;20118;-63
2021/11/19 07:49:31;;;;;;;20.88;10.23;;;;;;;6.12;100.00;100806.56;5045368;28;20126;-63
2021/11/19 07:51:56;;;;;;;22.42;11.23;;;;;;;6.07;100.00;100805.44;5043233;28;20095;-63
2021/11/19 07:54:22;;;;;;;24.42;12.05;;;;;;;6.08;100.00;100801.75;5044309;28;20041;-63
2021/11/19 07:56:47;;;;;;;26.90;11.77;;;;;;;6.08;100.00;100805.22;5043522;28;20041;-63
2021/11/19 07:59:22;;;;;;;26.23;11.90;;;;;;;6.11;100.00;100802.22;5044214;28;20663;-63
2021/11/19 08:01:48;;;;;;;23.38;11.10;;;;;;;6.19;100.00;100804.84;5043821;28;20041;-62
2021/11/19 08:04:14;;;;;;;21.80;11.90;;;;;;;6.16;100.00;100804.34;5042606;28;20063;-63
2021/11/19 08:06:39;;;;;;;21.27;10.70;;;;;;;6.16;100.00;100802.53;5041780;28;20041;-63
2021/11/19 08:09:05;;;;;;;23.58;10.88;;;;;;;6.30;100.00;100810.78;5044199;28;20021;-63
2021/11/19 08:11:31;;;;;;;19.40;10.02;;;;;;;6.21;100.00;100802.81;5043632;28;20073;-63
2021/11/19 08:13:57;;;;;;;20.35;10.93;;;;;;;6.21;100.00;100799.34;5044323;28;20037;-63
2021/11/19 08:16:22;;;;;;;19.48;10.23;;;;;;;6.23;100.00;100806.13;5041101;28;20111;-63
2021/11/19 08:18:52;;;;;;;22.25;10.80;;;;;;;6.35;100.00;100811.09;5043792;28;20760;-63
2021/11/19 08:21:17;;;;;;;19.50;9.85;;;;;;;6.29;100.00;100809.09;5041569;28;20041;-63
2021/11/19 08:23:49;;;;;;;17.10;9.05;;;;;;;6.30;100.00;100810.78;5041002;28;20048;-63
2021/11/19 08:26:18;;;;;;;17.45;8.68;;;;;;;6.38;100.00;100808.06;5040870;28;20041;-63
2021/11/19 08:28:44;;;;;;;19.73;10.15;;;;;;;6.36;100.00;100804.75;5041432;28;20028;-63
2021/11/19 08:31:11;;;;;;;18.25;10.07;;;;;;;6.43;100.00;100811.84;5042661;28;20131;-61
2021/11/19 08:33:37;;;;;;;17.92;9.13;;;;;;;6.42;100.00;100804.06;5042703;28;20475;-61
2021/11/19 08:36:03;;;;;;;19.23;10.02;;;;;;;6.50;100.00;100801.31;5042395;28;20033;-61
2021/11/19 08:38:29;;;;;;;18.50;8.75;;;;;;;6.52;100.00;100812.63;5043282;28;20032;-62
2021/11/19 08:40:54;;;;;;;16.17;9.00;;;;;;;6.53;100.00;100806.28;5043583;28;20048;-61
2021/11/19 08:43:25;;;;;;;16.27;8.48;;;;;;;6.50;100.00;100806.66;5043752;28;20028;-62
2021/11/19 08:45:53;;;;;;;;;;;;;;;6.68;100.00;100806.34;5041494;28;20049;-62
2021/11/19 08:48:18;;;;;;;15.25;8.23;;;;;;;6.75;100.00;100804.63;5044087;28;19974;-63
2021/11/19 08:50:44;;;;;;;13.45;7.95;;;;;;;6.72;100.00;100798.84;5041588;28;20045;-63
2021/11/19 08:53:11;;;;;;;14.70;7.88;;;;;;;6.71;100.00;100800.66;5044115;28;20048;-63
2021/11/19 08:55:46;;;;;;;11.95;6.88;;;;;;;6.71;100.00;100798.00;5040874;28;20049;-62
2021/11/19 08:58:27;;;;;;;10.65;6.38;;;;;;;6.74;100.00;100802.97;5040811;28;20028;-63
2021/11/19 09:00:54;;;;;;;12.95;8.18;;;;;;;6.93;100.00;100801.66;5042264;28;20045;-63
2021/11/19 09:03:20;;;;;;;11.82;6.00;;;;;;;6.82;100.00;100810.09;5042566;28;20025;-62
2021/11/19 09:05:46;;;;;;;9.43;5.40;;;;;;;6.80;100.00;100806.75;5039017;28;20056;-63
2021/11/19 09:08:14;;;;;;;11.63;6.78;;;;;;;6.82;100.00;100805.56;5041866;28;20139;-62
2021/11/19 09:10:40;;;;;;;11.90;6.35;;;;;;;6.93;100.00;100806.97;5042192;28;20774;-62
2021/11/19 09:13:05;;;;;;;9.05;4.80;;;;;;;6.86;100.00;100798.03;5043676;28;20040;-62
2021/11/19 09:15:31;;;;;;;8.27;5.43;;;;;;;6.85;100.00;100807.06;5041911;28;20453;-62
2021/11/19 09:18:24;;;;;;;11.48;6.43;;;;;;;6.96;100.00;100801.28;5040779;28;20043;-62
2021/11/19 09:21:16;;;;;;;10.63;5.35;;;;;;;7.04;100.00;100808.38;5034213;28;20080;-62
2021/11/19 09:23:51;;;;;;;12.30;5.88;;;;;;;7.16;100.00;100808.75;5038146;28;20029;-63
2021/11/19 09:26:20;;;;;;;10.32;5.75;;;;;;;7.15;99.61;100809.78;5041322;28;20461;-62
2021/11/19 09:28:49;;;;;;;9.98;5.88;;;;;;;7.22;100.00;100816.06;5035802;28;20059;-62
2021/11/19 09:31:17;;;;;;;12.27;6.40;;;;;;;7.15;99.78;100815.13;5013757;28;20612;-63
2021/11/19 09:33:44;;;;;;;9.05;5.18;;;;;;;7.13;99.93;100813.44;5031243;28;20029;-62
2021/11/19 09:36:09;;;;;;;8.25;5.25;;;;;;;7.17;99.08;100813.09;5044982;28;20049;-62
2021/11/19 09:38:35;;;;;;;8.32;5.13;;;;;;;7.18;99.47;100820.09;5024884;28;20817;-62
2021/11/19 09:41:28;;;;;;;8.60;5.25;;;;;;;7.12;99.33;100813.66;5030268;28;20049;-63
2021/11/19 09:44:35;;;;;;;9.57;5.78;;;;;;;7.26;99.46;100817.34;5036755;28;20071;-62
2021/11/19 09:47:25;;;;;;;7.80;4.65;;;;;;;7.30;98.85;100818.63;5055477;28;20342;-62
2021/11/19 09:50:20;;;;;;;8.15;4.72;;;;;;;7.43;98.40;100812.66;5041969;28;20674;-62
2021/11/19 09:53:10;;;;;;;7.22;4.60;;;;;;;7.33;99.01;100810.25;5033792;28;20060;-62
2021/11/19 09:55:49;;;;;;;8.35;5.35;;;;;;;7.46;98.60;100805.13;5039576;28;20078;-63
2021/11/19 09:58:21;;;;;;;7.53;5.07;;;;;;;7.50;98.25;100810.94;5039261;28;20021;-62
2021/11/19 10:01:26;;;;;;;6.90;4.32;;;;;;;7.47;98.23;100809.44;5035760;28;20126;-63
2021/11/19 10:04:14;;;;;;;8.57;5.13;;;;;;;7.41;98.25;100806.69;5042400;28;20044;-62
2021/11/19 10:06:44;;;;;;;8.43;5.10;;;;;;;7.52;98.51;100814.25;5030351;28;20080;-62
2021/11/19 10:09:35;;;;;;;7.93;4.45;;;;;;;7.53;98.56;100818.56;5036928;28;20028;-63
2021/11/19 10:12:22;;;;;;;10.15;5.13;;;;;;;7.45;98.26;100816.81;5025135;28;20099;-63
2021/11/19 10:14:47;;;;;;;5.85;3.88;;;;;;;7.46;97.59;100823.81;5041694;28;20488;-63
2021/11/19 10:17:34;;;;;;;7.57;5.13;;;;;;;7.48;98.24;100816.44;5040661;28;20045;-62
2021/11/19 10:20:09;;;;;;;8.15;5.07;;;;;;;7.54;98.10;100806.88;5040196;28;20347;-63
2021/11/19 10:22:42;;;;;;;10.40;4.82;;;;;;;7.55;97.83;100812.03;5021146;28;20045;-63
2021/11/19 10:25:37;;;;;;;7.57;4.65;;;;;;;7.56;97.31;100811.03;5035101;28;20027;-63
2021/11/19 10:28:07;;;;;;;7.10;4.72;;;;;;;7.70;97.41;100803.19;5036739;28;20029;-62
2021/11/19 10:30:40;;;;;;;8.02;5.55;;;;;;;7.78;97.04;100800.41;5043618;28;20075;-62
2021/11/19 10:33:23;;;;;;;8.95;5.25;;;;;;;7.98;97.17;100803.34;5043209;28;20714;-62
2021/11/19 10:36:02;;;;;;;7.93;4.50;;;;;;;7.89;96.06;100794.63;5043666;28;20529;-62
2021/11/19 10:39:05;;;;;;;9.40;5.22;;;;;;;7.94;96.34;100789.53;5038936;28;20047;-62
2021/11/19 10:41:41;;;;;;;7.82;5.55;;;;;;;8.00;96.17;100793.31;5043157;28;20072;-62
2021/11/19 10:44:25;;;;;;;8.05;5.22;;;;;;;8.13;95.96;100784.63;5037099;28;20044;-62
2021/11/19 10:47:10;;;;;;;9.07;5.03;;;;;;;8.08;95.17;100785.19;5042312;28;20075;-62
2021/11/19 10:49:55;;;;;;;6.53;4.40;;;;;;;7.97;95.80;100789.16;5040673;28;20039;-64
2021/11/19 10:52:23;;;;;;;8.95;6.32;;;;;;;7.91;96.26;100783.72;5040059;28;20038;-64
2021/11/19 10:55:17;;;;;;;6.93;4.70;;;;;;;7.92;96.50;100786.22;5054091;28;20025;-63
2021/11/19 10:57:53;;;;;;;10.77;7.10;;;;;;;7.99;95.58;100781.81;5037573;28;20043;-63
2021/11/19 11:00:32;;;;;;;8.43;5.40;;;;;;;7.93;96.43;100781.72;5040887;28;20060;-61
2021/11/19 11:02:59;;;;;;;8.77;4.75;;;;;;;7.84;96.50;100783.69;5032901;28;20033;-64
2021/11/19 11:05:36;;;;;;;8.23;4.97;;;;;;;7.94;96.24;100788.72;5038839;28;20044;-62
2021/11/19 11:08:21;;;;;;;7.15;4.43;;;;;;;8.04;96.62;100788.41;5039339;28;20025;-62
2021/11/19 11:10:56;;;;;;;10.32;6.13;;;;;;;7.93;95.99;100787.06;5036701;28;20491;-62
2021/11/19 11:13:33;;;;;;;8.00;4.88;;;;;;;7.78;96.00;100792.41;5040418;28;20103;-63
2021/11/19 11:16:18;;;;;;;9.07;4.85;;;;;;;7.86;96.26;100786.13;5042794;28;20563;-62
2021/11/19 11:18:44;;;;;;;6.80;4.35;;;;;;;7.71;96.80;100784.34;5030472;28;20126;-62
2021/11/19 11:21:33;;;;;;;8.10;5.53;;;;;;;7.84;97.02;100789.00;5038665;28;20037;-63
2021/11/19 11:24:02;;;;;;;7.18;4.22;;;;;;;7.83;96.78;100790.00;5037448;28;20479;-63
2021/11/19 11:27:15;;;;;;;8.93;5.38;;;;;;;7.74;97.26;100791.97;5056120;28;20515;-63